Terminal Aerodrome Forecast
Issued by NWS

Home | Current Version | Previous Version | Text Only | Print | Product List | Glossary Off
Versions: 1 2 3 4 5 6 7 8 9 10 11 12 13 14 15 16 17 18 19 20 21 22 23 24 25 26 27 28 29 30

302
FTUS45 KGGW 271720
TAFGDV
TAF
KGDV 271720Z 2718/2818 29019KT P6SM BKN080
     FM280200 31008KT P6SM SCT100
     FM281500 30011KT P6SM SCT080=

USA.gov is the U.S. government's official web portal to all federal, state and local government web resources and services.